Time;durP1;ratioP1;P1;durP2;ratioP2;P2;SDS_P1;SDS_P2;PMS_P1;PMS_P2;Temp;Humidity;BMP_temperature;BMP_pressure;BME280_temperature;BME280_humidity;BME280_pressure;Samples;Min_cycle;Max_cycle;Signal;HPM_P1;HPM_P2
2021/01/06 00:01:14;;;;;;;16.50;10.85;;;;;;;-0.39;74.92;93476.97;5075028;28;20099;-50
2021/01/06 00:03:39;;;;;;;16.95;10.35;;;;;;;-0.23;74.65;93479.09;5075093;28;20024;-47
2021/01/06 00:06:12;;;;;;;18.00;9.43;;;;;;;-0.36;74.81;93487.59;5074990;28;20130;-39
2021/01/06 00:08:37;;;;;;;23.77;11.20;;;;;;;-0.32;75.50;93480.00;5074993;28;20401;-40
2021/01/06 00:11:03;;;;;;;28.00;11.73;;;;;;;-0.26;75.48;93486.22;5074869;28;20115;-42
2021/01/06 00:13:29;;;;;;;19.77;9.93;;;;;;;-0.34;75.43;93490.59;5074750;28;20501;-39
2021/01/06 00:15:56;;;;;;;13.52;7.75;;;;;;;-0.27;75.26;93492.88;5074840;28;20108;-41
2021/01/06 00:18:23;;;;;;;15.07;8.48;;;;;;;-0.20;75.13;93489.75;5057427;28;20032;-44
2021/01/06 00:20:49;;;;;;;13.52;7.47;;;;;;;-0.31;74.69;93483.47;5054856;28;20033;-43
2021/01/06 00:23:15;;;;;;;13.07;7.25;;;;;;;-0.36;75.40;93490.31;5054524;28;20567;-41
2021/01/06 00:25:41;;;;;;;12.88;7.45;;;;;;;-0.47;76.49;93497.56;5054669;28;20434;-40
2021/01/06 00:28:08;;;;;;;10.80;6.35;;;;;;;-0.36;76.25;93498.47;5054559;28;20072;-42
2021/01/06 00:30:36;;;;;;;15.45;7.18;;;;;;;-0.27;76.27;93492.13;5054466;28;20509;-39
2021/01/06 00:33:04;;;;;;;16.00;7.53;;;;;;;-0.40;75.50;93492.50;5054543;28;20482;-38
2021/01/06 00:35:30;;;;;;;14.85;7.72;;;;;;;-0.36;76.50;93497.69;5054615;28;20032;-38
2021/01/06 00:37:57;;;;;;;21.42;12.00;;;;;;;-0.30;76.63;93493.81;5054302;28;20441;-38
2021/01/06 00:40:28;;;;;;;19.38;9.65;;;;;;;-0.24;76.07;93497.34;5054307;28;20040;-41
2021/01/06 00:42:57;;;;;;;21.20;9.07;;;;;;;-0.33;75.14;93500.22;5054216;28;20486;-41
2021/01/06 00:45:23;;;;;;;;;;;;;;;-0.69;75.13;93506.22;5054844;28;20421;-41
2021/01/06 00:47:48;;;;;;;38.08;12.52;;;;;;;-0.67;76.06;93503.03;5054060;28;19917;-41
2021/01/06 00:50:14;;;;;;;31.42;14.95;;;;;;;-0.60;76.46;93506.06;5054053;28;20029;-40
2021/01/06 00:52:39;;;;;;;25.50;12.60;;;;;;;-0.64;77.10;93521.06;5054221;28;20032;-43
2021/01/06 00:55:05;;;;;;;22.50;11.18;;;;;;;-0.52;77.93;93534.25;5052671;28;20032;-40
2021/01/06 00:57:31;;;;;;;12.20;6.50;;;;;;;-0.44;76.69;93535.34;5054110;28;20413;-41
2021/01/06 00:59:56;;;;;;;12.77;6.90;;;;;;;-0.41;74.75;93531.69;5053901;28;20021;-41
2021/01/06 01:02:21;;;;;;;18.38;9.88;;;;;;;-0.61;76.00;93536.38;5053580;28;20477;-41
2021/01/06 01:04:48;;;;;;;14.77;10.15;;;;;;;-0.68;76.36;93534.81;5054023;28;20029;-42
2021/01/06 01:07:13;;;;;;;17.20;9.75;;;;;;;-0.77;77.30;93522.16;5053861;28;20033;-43
2021/01/06 01:09:38;;;;;;;17.50;8.25;;;;;;;-0.64;77.65;93540.03;5058416;28;20024;-44
2021/01/06 01:12:08;;;;;;;30.67;12.55;;;;;;;-0.54;78.00;93534.00;5073626;28;20029;-43
2021/01/06 01:14:34;;;;;;;18.25;8.18;;;;;;;-0.44;78.50;93542.75;5073679;28;20025;-42
2021/01/06 01:17:01;;;;;;;17.77;9.48;;;;;;;-0.34;77.19;93533.97;5073604;28;20090;-40
2021/01/06 01:19:26;;;;;;;20.40;9.10;;;;;;;-0.22;76.45;93519.31;5073554;28;20035;-41
2021/01/06 01:21:52;;;;;;;12.13;8.05;;;;;;;-0.07;76.49;93527.38;5073690;28;20032;-42
2021/01/06 01:24:17;;;;;;;24.58;11.05;;;;;;;-0.29;77.00;93538.72;5073471;28;20028;-41
2021/01/06 01:26:43;;;;;;;29.23;12.90;;;;;;;-0.43;77.34;93547.69;5073509;28;20033;-42
2021/01/06 01:29:08;;;;;;;19.23;10.45;;;;;;;-0.22;76.72;93549.16;5073388;28;20031;-46
2021/01/06 01:31:35;;;;;;;19.25;9.13;;;;;;;-0.02;75.36;93554.56;5073305;28;20021;-42
2021/01/06 01:34:00;;;;;;;16.90;10.05;;;;;;;-0.43;76.26;93542.25;5073462;28;20078;-44
2021/01/06 01:36:27;;;;;;;18.05;9.88;;;;;;;-0.41;77.36;93547.22;5073352;28;20441;-42
2021/01/06 01:38:53;;;;;;;16.63;7.65;;;;;;;-0.52;79.08;93534.25;5073278;28;20055;-45
2021/01/06 01:41:21;;;;;;;15.57;8.50;;;;;;;-0.40;79.15;93535.91;5073185;28;20473;-46
2021/01/06 01:43:46;;;;;;;16.17;8.57;;;;;;;-0.29;78.81;93537.97;5073137;28;20449;-44
2021/01/06 01:46:33;;;;;;;17.98;8.80;;;;;;;-0.14;77.86;93530.50;5072947;28;20052;-44
2021/01/06 01:49:00;;;;;;;15.10;8.65;;;;;;;-0.05;75.80;93528.38;5055504;28;20025;-43
2021/01/06 01:51:36;;;;;;;23.63;8.70;;;;;;;0.04;75.36;93529.44;5073005;28;20100;-44
2021/01/06 01:54:08;;;;;;;25.95;9.60;;;;;;;0.05;75.92;93523.53;5055212;28;20408;-46
2021/01/06 01:56:48;;;;;;;37.75;15.43;;;;;;;0.05;77.27;93509.97;5055128;28;20031;-42
2021/01/06 01:59:23;;;;;;;21.10;11.57;;;;;;;0.00;77.29;93507.97;5055064;28;20089;-45
2021/01/06 02:01:49;;;;;;;18.02;9.68;;;;;;;-0.03;77.05;93500.75;5055020;28;20032;-46
2021/01/06 02:04:21;;;;;;;38.75;15.98;;;;;;;0.06;76.94;93499.84;5054934;28;20567;-43
2021/01/06 02:07:09;;;;;;;33.05;14.13;;;;;;;0.04;77.79;93518.59;5054445;28;20484;-42
2021/01/06 02:10:04;;;;;;;29.10;13.30;;;;;;;0.02;76.38;93516.38;5072680;28;20025;-44
2021/01/06 02:12:48;;;;;;;25.35;11.98;;;;;;;-0.11;76.90;93511.28;5046214;28;20036;-44
2021/01/06 02:15:39;;;;;;;18.35;9.48;;;;;;;-0.44;77.22;93518.34;5072518;28;20055;-42
2021/01/06 02:18:06;;;;;;;18.20;9.52;;;;;;;-0.58;77.75;93508.28;5053182;28;20123;-42
2021/01/06 02:20:31;;;;;;;17.70;8.93;;;;;;;-0.70;78.60;93504.72;5072460;28;20892;-41
2021/01/06 02:22:57;;;;;;;16.27;8.35;;;;;;;-0.84;79.05;93471.03;5072145;28;20024;-44
2021/01/06 02:25:25;;;;;;;17.92;8.73;;;;;;;-0.65;79.52;93493.19;5054688;28;20032;-44
2021/01/06 02:27:51;;;;;;;15.25;7.07;;;;;;;-0.45;78.97;93476.91;5072256;28;20054;-42
2021/01/06 02:30:17;;;;;;;18.33;9.45;;;;;;;-0.26;79.52;93480.06;5072252;28;20032;-42
2021/01/06 02:32:43;;;;;;;15.50;7.32;;;;;;;-0.15;79.60;93483.63;5054185;28;20031;-42
2021/01/06 02:35:10;;;;;;;22.52;10.77;;;;;;;-0.21;79.32;93480.13;5072169;28;20024;-45
2021/01/06 02:37:36;;;;;;;26.05;12.85;;;;;;;-0.20;79.14;93470.75;5072038;28;20024;-45
2021/01/06 02:40:04;;;;;;;23.52;11.43;;;;;;;-0.08;78.20;93468.88;5072071;28;20024;-45
2021/01/06 02:42:29;;;;;;;20.80;11.80;;;;;;;0.00;77.65;93467.25;5054150;28;20106;-43
2021/01/06 02:44:55;;;;;;;17.90;9.38;;;;;;;-0.03;77.69;93466.22;5054066;28;20028;-43
2021/01/06 02:47:20;;;;;;;25.95;11.30;;;;;;;-0.11;78.01;93448.88;5071662;28;20165;-44
2021/01/06 02:49:46;;;;;;;23.10;10.30;;;;;;;-0.49;78.12;93462.06;5054087;28;20021;-48
2021/01/06 02:52:17;;;;;;;15.95;8.02;;;;;;;-0.61;79.30;93460.47;5071803;28;20028;-44
2021/01/06 02:54:46;;;;;;;21.23;10.60;;;;;;;-0.48;79.38;93458.13;5053925;28;20065;-46
2021/01/06 02:57:13;;;;;;;8.20;5.50;;;;;;;-0.55;79.27;93461.25;5054151;28;20051;-43
2021/01/06 02:59:42;;;;;;;12.23;6.43;;;;;;;-0.39;78.26;93466.13;5054000;28;20025;-44
2021/01/06 03:02:09;;;;;;;11.05;7.20;;;;;;;-0.48;78.79;93468.97;5071634;28;20035;-43
2021/01/06 03:04:38;;;;;;;9.52;5.57;;;;;;;-0.29;78.71;93462.78;5071642;28;20033;-42
2021/01/06 03:07:05;;;;;;;8.55;6.15;;;;;;;-0.29;78.59;93464.75;5053715;28;20031;-44
2021/01/06 03:09:37;;;;;;;10.50;6.05;;;;;;;-0.09;78.15;93457.28;5071519;28;20059;-41
2021/01/06 03:12:11;;;;;;;9.40;4.72;;;;;;;-0.23;78.74;93458.16;5071618;28;20024;-40
2021/01/06 03:14:38;;;;;;;7.57;4.63;;;;;;;-0.11;78.68;93454.28;5053702;28;20032;-40
2021/01/06 03:17:04;;;;;;;11.60;5.32;;;;;;;-0.27;79.21;93435.91;5070853;28;20044;-42
2021/01/06 03:19:33;;;;;;;7.53;4.90;;;;;;;-0.10;79.34;93444.19;5053552;28;20051;-42
2021/01/06 03:22:00;;;;;;;10.10;5.23;;;;;;;-0.05;79.48;93438.84;5071446;28;20025;-41
2021/01/06 03:24:29;;;;;;;7.22;4.90;;;;;;;-0.04;79.56;93431.41;5053538;28;20028;-42
2021/01/06 03:26:57;;;;;;;12.77;6.03;;;;;;;-0.01;79.54;93431.22;5053731;28;20025;-41
2021/01/06 03:29:25;;;;;;;13.73;7.35;;;;;;;0.13;79.32;93432.28;5053463;28;20032;-42
2021/01/06 03:31:50;;;;;;;10.70;6.22;;;;;;;-0.05;79.57;93438.84;5071349;28;20075;-40
2021/01/06 03:34:22;;;;;;;13.93;6.97;;;;;;;-0.24;79.60;93432.22;5049481;28;20037;-41
2021/01/06 03:36:59;;;;;;;11.50;8.20;;;;;;;-0.32;79.56;93433.88;5033615;28;20432;-41
2021/01/06 03:39:31;;;;;;;11.52;6.93;;;;;;;-0.25;79.90;93438.88;5033611;28;20486;-42
2021/01/06 03:41:57;;;;;;;11.30;6.85;;;;;;;-0.29;80.78;93438.38;5033430;28;20414;-42
2021/01/06 03:44:24;;;;;;;7.55;5.60;;;;;;;-0.35;81.44;93431.41;5033436;28;20117;-41
2021/01/06 03:46:58;;;;;;;8.45;4.63;;;;;;;-0.28;81.87;93430.97;5033318;28;20068;-42
2021/01/06 03:49:44;;;;;;;5.25;3.47;;;;;;;-0.24;82.04;93439.63;5050924;28;20091;-39
2021/01/06 03:52:21;;;;;;;6.47;3.92;;;;;;;-0.31;82.49;93442.78;5033371;28;20036;-43
2021/01/06 03:55:02;;;;;;;8.20;4.38;;;;;;;-0.16;82.31;93436.00;5033435;28;20390;-42
2021/01/06 03:57:28;;;;;;;10.07;5.85;;;;;;;-0.05;82.12;93441.53;5051157;28;20028;-41
2021/01/06 03:59:55;;;;;;;16.17;6.47;;;;;;;0.11;81.59;93445.59;5033285;28;20509;-42
2021/01/06 04:02:30;;;;;;;7.20;4.68;;;;;;;0.15;82.24;93442.69;5033279;28;20386;-45
2021/01/06 04:05:06;;;;;;;3.88;2.00;;;;;;;0.43;81.60;93436.25;5033394;28;20532;-41
2021/01/06 04:07:35;;;;;;;3.88;2.30;;;;;;;0.66;81.23;93429.72;5033724;28;20025;-42
2021/01/06 04:10:13;;;;;;;5.50;3.03;;;;;;;0.70;81.05;93437.63;5033111;28;20573;-41
2021/01/06 04:12:39;;;;;;;5.93;2.28;;;;;;;1.01;79.73;93440.25;5033170;28;20028;-42
2021/01/06 04:15:06;;;;;;;2.55;1.90;;;;;;;1.64;75.71;93440.00;5050960;28;20468;-41
2021/01/06 04:17:36;;;;;;;4.05;1.58;;;;;;;1.99;74.11;93443.03;5050882;28;20032;-42
2021/01/06 04:20:28;;;;;;;2.78;1.52;;;;;;;2.28;72.98;93454.19;5033152;28;20060;-42
2021/01/06 04:22:56;;;;;;;2.22;1.65;;;;;;;2.46;71.27;93444.75;5050638;28;20513;-41
2021/01/06 04:25:24;;;;;;;4.57;1.42;;;;;;;2.66;70.49;93451.94;5050780;28;20020;-42
2021/01/06 04:27:52;;;;;;;3.95;1.58;;;;;;;2.73;69.88;93449.44;5050986;28;20052;-42
2021/01/06 04:30:40;;;;;;;4.27;1.60;;;;;;;2.88;69.42;93449.91;5054593;28;20029;-42
2021/01/06 04:33:10;;;;;;;3.50;1.40;;;;;;;3.11;67.66;93441.66;5054630;28;20346;-42
2021/01/06 04:35:35;;;;;;;2.30;1.42;;;;;;;3.19;68.06;93453.53;5036937;28;20021;-43
2021/01/06 04:38:01;;;;;;;6.03;3.05;;;;;;;3.03;70.40;93466.00;5036647;28;20027;-43
2021/01/06 04:40:39;;;;;;;7.97;4.05;;;;;;;2.67;72.09;93454.16;5054302;28;20052;-42
2021/01/06 04:43:12;;;;;;;4.40;2.58;;;;;;;2.53;72.61;93455.19;5036558;28;20035;-41
2021/01/06 04:45:41;;;;;;;7.93;4.07;;;;;;;2.37;73.50;93455.91;5054245;28;20017;-43
2021/01/06 04:48:15;;;;;;;10.75;5.18;;;;;;;2.25;74.56;93449.00;5036201;28;20052;-41
2021/01/06 04:51:09;;;;;;;10.75;5.00;;;;;;;2.18;74.81;93433.88;5054140;28;20099;-44
2021/01/06 04:53:56;;;;;;;9.45;3.65;;;;;;;2.13;75.20;93452.94;5036480;28;20025;-47
2021/01/06 04:56:49;;;;;;;5.68;2.42;;;;;;;2.14;74.57;93448.97;5054097;28;20032;-41
2021/01/06 04:59:37;;;;;;;3.53;2.47;;;;;;;2.21;75.09;93460.09;5054059;28;20116;-42
2021/01/06 05:02:03;;;;;;;6.00;3.05;;;;;;;2.26;74.72;93466.81;5035952;28;20418;-45
2021/01/06 05:04:47;;;;;;;7.63;2.42;;;;;;;2.30;74.22;93457.16;5053981;28;20029;-45
2021/01/06 05:07:15;;;;;;;4.35;2.33;;;;;;;2.39;73.39;93460.84;5053967;28;20087;-45
2021/01/06 05:09:45;;;;;;;2.83;2.17;;;;;;;2.44;73.19;93454.66;5054014;28;20052;-44
2021/01/06 05:12:23;;;;;;;2.60;1.75;;;;;;;2.43;73.01;93448.47;5053662;28;20509;-42
2021/01/06 05:14:56;;;;;;;2.33;1.80;;;;;;;2.44;73.28;93452.69;5036010;28;20410;-43
2021/01/06 05:17:22;;;;;;;3.00;2.22;;;;;;;2.40;74.19;93443.28;5036407;28;20409;-40
2021/01/06 05:19:49;;;;;;;3.85;2.08;;;;;;;2.38;73.66;93451.97;5053645;28;20039;-40
2021/01/06 05:22:15;;;;;;;4.20;2.63;;;;;;;2.39;73.64;93449.97;5035670;28;20547;-43
2021/01/06 05:24:43;;;;;;;2.10;1.85;;;;;;;2.33;73.45;93451.94;5053561;28;20163;-44
2021/01/06 05:27:15;;;;;;;5.13;2.05;;;;;;;2.37;74.05;93449.72;5035944;28;20021;-42
2021/01/06 05:29:45;;;;;;;3.45;1.70;;;;;;;2.46;73.25;93447.50;5053802;28;20037;-41
2021/01/06 05:32:37;;;;;;;4.35;2.50;;;;;;;2.49;73.64;93446.47;5053455;28;20021;-42
2021/01/06 05:35:08;;;;;;;5.20;2.70;;;;;;;2.55;72.93;93441.78;5046663;28;20476;-41
2021/01/06 05:37:34;;;;;;;6.63;2.05;;;;;;;2.58;72.62;93438.06;5035594;28;20025;-43
2021/01/06 05:40:06;;;;;;;5.35;3.15;;;;;;;2.67;72.88;93456.13;5052434;28;20032;-43
2021/01/06 05:42:53;;;;;;;5.63;2.25;;;;;;;2.74;72.22;93453.66;5055670;28;20028;-41
2021/01/06 05:45:21;;;;;;;3.67;1.85;;;;;;;2.62;72.16;93443.28;5053246;28;20028;-46
2021/01/06 05:47:52;;;;;;;2.55;1.73;;;;;;;2.57;72.43;93442.03;5053056;28;20045;-44
2021/01/06 05:50:40;;;;;;;2.92;1.50;;;;;;;2.62;71.58;93446.00;5033741;28;20029;-47
2021/01/06 05:53:31;;;;;;;1.90;1.08;;;;;;;2.94;69.11;93453.38;5053322;28;20021;-44
2021/01/06 05:55:56;;;;;;;4.75;1.90;;;;;;;2.95;70.59;93443.94;5048383;28;20048;-44
2021/01/06 05:58:31;;;;;;;3.97;2.03;;;;;;;2.87;70.68;93455.84;5033404;28;20405;-44
2021/01/06 06:01:02;;;;;;;4.90;2.03;;;;;;;2.85;70.68;93463.81;5024175;28;20023;-43
2021/01/06 06:04:05;;;;;;;5.60;1.67;;;;;;;2.89;69.62;93459.56;5070742;28;20017;-45
2021/01/06 06:07:08;;;;;;;3.30;2.63;;;;;;;2.97;70.72;93459.78;5052854;28;20501;-44
2021/01/06 06:10:19;;;;;;;2.95;1.45;;;;;;;3.02;69.36;93470.72;5072571;28;20478;-43
2021/01/06 06:13:29;;;;;;;1.35;1.05;;;;;;;3.04;69.52;93472.94;5072708;28;20085;-41
2021/01/06 06:16:15;;;;;;;3.30;1.58;;;;;;;3.05;68.98;93477.16;5056469;28;20501;-42
2021/01/06 06:19:09;;;;;;;2.13;1.48;;;;;;;3.30;67.63;93483.53;5071538;28;20028;-43
2021/01/06 06:21:41;;;;;;;4.28;2.13;;;;;;;3.55;65.54;93483.19;5020298;28;20097;-40
2021/01/06 06:24:40;;;;;;;2.05;1.52;;;;;;;3.62;66.40;93484.63;5051995;28;20043;-41
2021/01/06 06:27:27;;;;;;;1.60;1.20;;;;;;;3.77;65.04;93493.25;5034438;28;20032;-40
2021/01/06 06:30:12;;;;;;;2.08;1.30;;;;;;;3.89;64.55;93486.50;5052246;28;20025;-42
2021/01/06 06:32:39;;;;;;;6.57;2.40;;;;;;;3.79;66.00;93507.91;5034394;28;20082;-43
2021/01/06 06:35:08;;;;;;;2.25;1.50;;;;;;;3.81;65.55;93504.69;5034303;28;20115;-42
2021/01/06 06:37:34;;;;;;;5.57;3.22;;;;;;;3.64;66.84;93506.72;5052278;28;20074;-42
2021/01/06 06:39:59;;;;;;;2.30;1.52;;;;;;;3.62;66.73;93511.94;5052387;28;20025;-44
2021/01/06 06:42:30;;;;;;;3.97;1.48;;;;;;;3.57;67.17;93524.34;5052047;28;20456;-43
2021/01/06 06:44:59;;;;;;;8.32;1.73;;;;;;;3.59;67.74;93526.59;5035870;28;20056;-48
2021/01/06 06:48:03;;;;;;;4.68;2.80;;;;;;;3.61;67.74;93524.88;5071868;28;20052;-43
2021/01/06 06:50:46;;;;;;;3.78;2.00;;;;;;;3.56;67.37;93517.44;5068149;28;20047;-43
2021/01/06 06:53:37;;;;;;;2.78;1.70;;;;;;;3.61;67.73;93522.13;5070778;28;20031;-45
2021/01/06 06:56:16;;;;;;;6.15;2.00;;;;;;;3.69;66.73;93525.81;5071798;28;20020;-45
2021/01/06 06:58:46;;;;;;;;;;;;;;;3.76;66.22;93522.56;5071341;28;20578;-43
2021/01/06 07:01:14;;;;;;;3.03;1.55;;;;;;;3.88;65.03;93520.53;5054009;28;20369;-45
2021/01/06 07:03:45;;;;;;;5.22;2.67;;;;;;;3.91;66.03;93516.78;5070749;28;20033;-43
2021/01/06 07:06:11;;;;;;;2.00;1.23;;;;;;;3.94;65.45;93528.69;5053808;28;20551;-46
2021/01/06 07:08:43;;;;;;;2.63;1.40;;;;;;;4.13;64.13;93529.59;5071459;28;20024;-48
2021/01/06 07:11:18;;;;;;;1.98;1.48;;;;;;;4.33;62.61;93535.44;5047923;28;20536;-44
2021/01/06 07:13:46;;;;;;;7.78;3.75;;;;;;;4.21;64.45;93514.13;5059171;28;20494;-49
2021/01/06 07:16:17;;;;;;;15.45;6.72;;;;;;;4.27;65.23;93533.97;5071121;28;20028;-47
2021/01/06 07:18:51;;;;;;;11.05;6.57;;;;;;;4.30;65.31;93528.25;5053694;28;20028;-43
2021/01/06 07:21:29;;;;;;;16.98;7.50;;;;;;;4.31;65.79;93529.72;5065425;28;20056;-44
2021/01/06 07:24:16;;;;;;;11.90;6.40;;;;;;;4.39;65.72;93535.41;5042377;28;20021;-44
2021/01/06 07:26:53;;;;;;;6.40;3.15;;;;;;;4.42;65.34;93543.31;5045869;28;20024;-44
2021/01/06 07:29:20;;;;;;;2.70;2.03;;;;;;;4.45;64.47;93534.13;5052743;28;20103;-43
2021/01/06 07:31:58;;;;;;;9.65;4.47;;;;;;;4.40;64.76;93540.34;5064448;28;20082;-46
2021/01/06 07:34:37;;;;;;;8.80;5.00;;;;;;;4.60;64.88;93531.78;5055149;28;20025;-44
2021/01/06 07:37:03;;;;;;;7.82;4.40;;;;;;;4.77;64.76;93525.44;5050438;28;20032;-45
2021/01/06 07:39:31;;;;;;;4.50;2.22;;;;;;;4.83;64.13;93529.59;5043780;28;20092;-44
2021/01/06 07:41:59;;;;;;;3.60;2.17;;;;;;;4.94;63.38;93521.31;5040517;28;20116;-45
2021/01/06 07:44:37;;;;;;;5.50;2.67;;;;;;;4.98;63.03;93512.84;5052624;28;20017;-44
2021/01/06 07:47:19;;;;;;;4.95;2.50;;;;;;;5.24;62.80;93532.25;5070584;28;20054;-47
2021/01/06 07:49:56;;;;;;;7.75;4.22;;;;;;;5.37;63.04;93530.38;5072629;28;20404;-46
2021/01/06 07:52:27;;;;;;;12.55;6.15;;;;;;;5.37;62.32;93535.13;5049519;28;20021;-52
2021/01/06 07:55:18;;;;;;;15.50;7.53;;;;;;;5.57;62.80;93550.31;5054104;28;20028;-47
2021/01/06 07:57:49;;;;;;;14.18;7.18;;;;;;;5.56;62.50;93530.44;5013969;28;20521;-47
2021/01/06 08:00:22;;;;;;;19.50;10.40;;;;;;;5.87;61.11;93553.75;5038137;28;20074;-48
2021/01/06 08:02:59;;;;;;;8.82;5.95;;;;;;;6.26;61.06;93561.53;5045973;28;20029;-45
2021/01/06 08:05:30;;;;;;;23.75;12.20;;;;;;;6.54;60.64;93570.13;5072228;28;20028;-51
2021/01/06 08:08:06;;;;;;;14.70;8.18;;;;;;;7.08;58.17;93562.31;5055939;28;20048;-48
2021/01/06 08:10:32;;;;;;;6.65;4.35;;;;;;;7.78;57.29;93565.63;5074477;28;20020;-47
2021/01/06 08:13:27;;;;;;;9.95;4.22;;;;;;;8.40;54.78;93572.22;5074094;28;20017;-44
2021/01/06 08:16:06;;;;;;;3.40;2.15;;;;;;;8.46;51.35;93580.31;5073031;28;20031;-46
2021/01/06 08:19:02;;;;;;;2.42;1.90;;;;;;;8.07;51.92;93572.84;5073715;28;20027;-46
2021/01/06 08:21:43;;;;;;;13.93;5.50;;;;;;;7.96;52.12;93573.78;5056139;28;20418;-45
2021/01/06 08:24:16;;;;;;;5.47;3.67;;;;;;;7.93;54.43;93565.84;5052760;28;20025;-46
2021/01/06 08:26:56;;;;;;;5.97;3.22;;;;;;;8.03;54.33;93566.91;5052355;28;20437;-45
2021/01/06 08:29:27;;;;;;;3.92;2.60;;;;;;;8.02;54.39;93571.66;5053781;28;20532;-45
2021/01/06 08:32:17;;;;;;;2.83;1.55;;;;;;;7.99;54.04;93572.00;5053481;28;20494;-45
2021/01/06 08:34:57;;;;;;;2.20;1.63;;;;;;;8.16;52.97;93575.16;5053702;28;20560;-46
2021/01/06 08:37:29;;;;;;;4.30;2.17;;;;;;;8.91;52.66;93569.84;5035984;28;20021;-45
2021/01/06 08:39:55;;;;;;;2.50;1.83;;;;;;;10.25;46.14;93562.47;5035843;28;20029;-45
2021/01/06 08:42:26;;;;;;;2.45;1.80;;;;;;;10.52;46.69;93561.72;5053624;28;20110;-44
2021/01/06 08:44:54;;;;;;;4.53;2.13;;;;;;;11.48;42.38;93544.41;5036811;28;20020;-46
2021/01/06 08:47:38;;;;;;;1.95;1.52;;;;;;;12.37;40.06;93550.44;5073194;28;20052;-45
2021/01/06 08:50:15;;;;;;;2.72;1.45;;;;;;;13.46;38.50;93546.81;5073516;28;20594;-44
2021/01/06 08:52:42;;;;;;;2.50;1.55;;;;;;;14.21;35.88;93548.19;5073309;28;20028;-43
2021/01/06 08:55:30;;;;;;;2.00;1.80;;;;;;;14.85;35.03;93544.41;5069336;28;20085;-44
2021/01/06 08:58:00;;;;;;;1.50;1.25;;;;;;;15.51;33.20;93545.38;5052900;28;20021;-45
2021/01/06 09:00:41;;;;;;;2.42;1.60;;;;;;;16.17;32.76;93544.88;5052769;28;20103;-45
2021/01/06 09:03:06;;;;;;;3.17;1.92;;;;;;;16.45;31.62;93549.78;5052722;28;20407;-45
2021/01/06 09:05:49;;;;;;;4.00;2.55;;;;;;;16.41;30.92;93545.94;5052374;28;20021;-44
2021/01/06 09:08:22;;;;;;;1.67;1.40;;;;;;;16.84;31.10;93558.91;5062514;28;20029;-45
2021/01/06 09:11:00;;;;;;;1.35;1.20;;;;;;;16.52;30.55;93564.91;5054468;28;20107;-46
2021/01/06 09:13:31;;;;;;;2.08;1.08;;;;;;;16.64;29.35;93565.78;5071658;28;20020;-46
2021/01/06 09:16:01;;;;;;;2.28;1.20;;;;;;;16.44;29.93;93553.13;5052698;28;20108;-48
2021/01/06 09:18:35;;;;;;;4.95;2.40;;;;;;;16.40;30.45;93558.41;5053325;28;20036;-45
2021/01/06 09:21:04;;;;;;;2.03;1.38;;;;;;;16.25;31.00;93562.19;5053501;28;20036;-45
2021/01/06 09:23:30;;;;;;;4.47;1.65;;;;;;;16.15;31.42;93558.66;5071061;28;20107;-46
2021/01/06 09:25:58;;;;;;;2.55;1.10;;;;;;;15.98;30.26;93558.75;5071200;28;20442;-46
2021/01/06 09:28:24;;;;;;;3.22;2.30;;;;;;;16.49;32.17;93554.91;5053098;28;20557;-45
2021/01/06 09:30:49;;;;;;;3.13;1.38;;;;;;;17.33;31.24;93544.31;5052842;28;20021;-45
2021/01/06 09:33:37;;;;;;;2.70;1.77;;;;;;;18.48;28.23;93529.16;5069728;28;20020;-46
2021/01/06 09:36:03;;;;;;;1.67;1.23;;;;;;;18.40;28.57;93529.31;5052678;28;20047;-43
2021/01/06 09:38:32;;;;;;;3.03;1.55;;;;;;;19.00;27.51;93524.16;5066711;28;20024;-47
2021/01/06 09:41:20;;;;;;;3.17;1.52;;;;;;;19.19;26.41;93529.59;5036372;28;20627;-45
2021/01/06 09:43:54;;;;;;;1.88;1.38;;;;;;;19.21;25.71;93526.91;5046815;28;20428;-45
2021/01/06 09:46:26;;;;;;;4.70;2.88;;;;;;;19.65;26.49;93515.72;5070610;28;20056;-49
2021/01/06 09:48:57;;;;;;;1.38;1.13;;;;;;;19.84;25.52;93511.97;5064904;28;20028;-44
2021/01/06 09:51:23;;;;;;;1.30;0.90;;;;;;;19.68;25.46;93508.91;5066340;28;20053;-44
2021/01/06 09:53:53;;;;;;;1.90;1.80;;;;;;;18.83;26.89;93499.28;5050219;28;20028;-43
2021/01/06 09:56:20;;;;;;;1.23;1.00;;;;;;;18.40;27.21;93497.84;5078755;28;20123;-43
2021/01/06 09:58:47;;;;;;;2.35;1.10;;;;;;;18.75;26.36;93493.91;5052851;28;20103;-44
2021/01/06 10:01:27;;;;;;;2.85;0.93;;;;;;;18.91;26.79;93486.56;5072099;28;20032;-43
2021/01/06 10:03:55;;;;;;;2.00;1.48;;;;;;;19.61;25.92;93484.69;5064197;28;20028;-43
2021/01/06 10:06:29;;;;;;;2.05;1.10;;;;;;;18.93;27.44;93483.88;5050644;28;20150;-44
2021/01/06 10:09:21;;;;;;;1.20;0.90;;;;;;;17.61;28.24;93475.03;5048015;28;20143;-42
2021/01/06 10:12:12;;;;;;;1.10;0.80;;;;;;;16.54;29.24;93487.75;5023790;28;20464;-42
2021/01/06 10:14:56;;;;;;;2.90;0.98;;;;;;;15.76;29.93;93490.25;5037660;28;20103;-43
2021/01/06 10:17:29;;;;;;;1.30;1.10;;;;;;;15.03;31.63;93486.69;5051138;28;20024;-43
2021/01/06 10:20:03;;;;;;;0.70;0.70;;;;;;;14.65;33.22;93481.63;5065342;28;20078;-41
2021/01/06 10:22:52;;;;;;;2.65;1.05;;;;;;;15.19;31.93;93469.22;5067014;28;20489;-41
2021/01/06 10:25:32;;;;;;;1.63;0.77;;;;;;;14.97;32.18;93475.84;5069253;28;20033;-43
2021/01/06 10:28:19;;;;;;;2.15;1.00;;;;;;;15.86;30.97;93477.81;5075762;28;20028;-42
2021/01/06 10:31:03;;;;;;;1.42;0.93;;;;;;;15.89;31.10;93462.75;5090217;28;20547;-42
2021/01/06 10:33:31;;;;;;;1.30;0.80;;;;;;;16.04;30.38;93467.31;5077164;28;20036;-41
2021/01/06 10:36:31;;;;;;;1.05;0.77;;;;;;;15.12;31.88;93472.84;5060774;28;20044;-39
2021/01/06 10:38:57;;;;;;;2.00;1.10;;;;;;;15.32;31.54;93476.44;5049940;28;20055;-41
2021/01/06 10:41:34;;;;;;;0.93;0.70;;;;;;;15.31;32.57;93454.78;5052065;28;20024;-42
2021/01/06 10:44:01;;;;;;;1.40;0.90;;;;;;;15.72;30.71;93451.00;5069704;28;20032;-42
2021/01/06 10:46:45;;;;;;;2.45;0.80;;;;;;;15.28;32.72;93467.06;5069194;28;20077;-42
2021/01/06 10:49:20;;;;;;;0.77;0.60;;;;;;;15.66;31.46;93458.84;5053525;28;20032;-41
2021/01/06 10:51:57;;;;;;;1.50;1.05;;;;;;;15.48;31.95;93458.25;5069421;28;20035;-40
2021/01/06 10:54:44;;;;;;;1.38;0.90;;;;;;;16.01;32.16;93470.50;5069412;28;20024;-42
2021/01/06 10:57:36;;;;;;;1.25;1.02;;;;;;;16.01;30.48;93468.47;5050598;28;20036;-41
2021/01/06 11:00:25;;;;;;;1.77;1.10;;;;;;;15.22;32.65;93472.91;5050834;28;20089;-43
2021/01/06 11:03:09;;;;;;;1.00;1.00;;;;;;;15.45;32.02;93464.22;5058928;28;20532;-40
2021/01/06 11:05:40;;;;;;;1.40;0.90;;;;;;;15.78;31.39;93480.00;5068514;28;20441;-41
2021/01/06 11:08:28;;;;;;;1.75;1.00;;;;;;;15.03;32.21;93479.09;5047948;28;20052;-42
2021/01/06 11:11:06;;;;;;;2.58;1.00;;;;;;;15.35;32.06;93482.91;5042645;28;20044;-40
2021/01/06 11:13:50;;;;;;;1.73;1.30;;;;;;;15.15;33.34;93474.47;5062575;28;20052;-42
2021/01/06 11:16:16;;;;;;;1.98;1.08;;;;;;;15.37;32.48;93458.75;5069380;28;20090;-41
2021/01/06 11:18:45;;;;;;;1.90;1.40;;;;;;;15.97;32.08;93457.03;5046410;28;20025;-42
2021/01/06 11:21:24;;;;;;;1.67;1.00;;;;;;;16.29;30.79;93433.59;5047613;28;20520;-41
2021/01/06 11:23:56;;;;;;;4.55;2.20;;;;;;;16.11;31.38;93444.16;5052232;28;20727;-41
2021/01/06 11:26:23;;;;;;;1.42;1.02;;;;;;;16.01;30.83;93437.84;5047425;28;20112;-42
2021/01/06 11:29:10;;;;;;;1.10;0.90;;;;;;;15.65;31.26;93449.06;5052997;28;20028;-43
2021/01/06 11:32:01;;;;;;;2.92;1.75;;;;;;;15.38;31.98;93442.78;5064630;28;20028;-42
2021/01/06 11:34:37;;;;;;;1.48;1.35;;;;;;;15.16;34.38;93427.91;5048448;28;20475;-43
2021/01/06 11:37:31;;;;;;;3.35;1.20;;;;;;;15.46;32.83;93435.84;5030775;28;20060;-43
2021/01/06 11:39:57;;;;;;;2.10;1.10;;;;;;;15.86;32.73;93424.19;5050837;28;20039;-42
2021/01/06 11:42:47;;;;;;;3.05;1.10;;;;;;;16.09;31.65;93418.94;5047812;28;20572;-42
2021/01/06 11:45:20;;;;;;;2.33;1.40;;;;;;;16.28;32.00;93424.53;5066123;28;20024;-45
2021/01/06 11:47:52;;;;;;;1.42;0.93;;;;;;;16.41;31.95;93432.44;5035231;28;20056;-53
2021/01/06 11:50:34;;;;;;;4.05;1.45;;;;;;;16.37;31.10;93414.69;5046482;28;20107;-46
2021/01/06 11:53:28;;;;;;;3.20;1.02;;;;;;;15.72;32.19;93432.22;5044819;28;20025;-47
2021/01/06 11:56:12;;;;;;;2.35;1.50;;;;;;;15.75;32.13;93422.72;5052133;28;20079;-45
2021/01/06 11:58:55;;;;;;;5.82;1.88;;;;;;;15.45;32.25;93408.56;5048187;28;20036;-47
2021/01/06 12:01:34;;;;;;;3.92;2.10;;;;;;;14.51;34.15;93413.81;5066128;28;20024;-46
2021/01/06 12:04:21;;;;;;;2.00;1.38;;;;;;;14.36;34.69;93423.09;5049829;28;20044;-47
2021/01/06 12:06:58;;;;;;;4.70;1.70;;;;;;;14.19;35.72;93417.53;5061574;28;20540;-46